sensor_id;sensor_type;location;lat;lon;timestamp;pressure;altitude;pressure_sealevel;temperature;humidity
72116;BME280;59991;52.140;5.428;2023-02-08T00:00:23;104011.78;;;-2.55;89.32
72116;BME280;59991;52.140;5.428;2023-02-08T00:00:58;104022.06;;;-2.52;89.12
72116;BME280;59991;52.140;5.428;2023-02-08T00:01:32;104010.97;;;-2.56;89.15
72116;BME280;59991;52.140;5.428;2023-02-08T00:02:08;104017.13;;;-2.55;89.06
72116;BME280;59991;52.140;5.428;2023-02-08T00:02:42;104015.44;;;-2.50;89.11
72116;BME280;59991;52.140;5.428;2023-02-08T00:03:16;104004.81;;;-2.56;89.17
72116;BME280;59991;52.140;5.428;2023-02-08T00:03:47;104018.34;;;-2.51;89.27
72116;BME280;59991;52.140;5.428;2023-02-08T00:04:22;104012.41;;;-2.53;89.45
72116;BME280;59991;52.140;5.428;2023-02-08T00:05:01;104003.78;;;-2.55;89.06
72116;BME280;59991;52.140;5.428;2023-02-08T00:05:33;104012.19;;;-2.52;89.24
72116;BME280;59991;52.140;5.428;2023-02-08T00:06:07;104009.72;;;-2.53;89.09
72116;BME280;59991;52.140;5.428;2023-02-08T00:06:41;104009.13;;;-2.55;89.33
72116;BME280;59991;52.140;5.428;2023-02-08T00:07:23;104009.94;;;-2.55;89.25
72116;BME280;59991;52.140;5.428;2023-02-08T00:07:56;104009.72;;;-2.53;89.48
72116;BME280;59991;52.140;5.428;2023-02-08T00:08:35;104016.25;;;-2.49;89.17
72116;BME280;59991;52.140;5.428;2023-02-08T00:09:09;104007.06;;;-2.53;89.39
72116;BME280;59991;52.140;5.428;2023-02-08T00:09:43;104012.41;;;-2.53;89.11
72116;BME280;59991;52.140;5.428;2023-02-08T00:10:20;104010.13;;;-2.56;89.72
72116;BME280;59991;52.140;5.428;2023-02-08T00:10:55;104009.13;;;-2.55;89.27
72116;BME280;59991;52.140;5.428;2023-02-08T00:11:30;104010.75;;;-2.54;89.20
72116;BME280;59991;52.140;5.428;2023-02-08T00:12:02;104009.13;;;-2.55;89.02
72116;BME280;59991;52.140;5.428;2023-02-08T00:12:33;104004.19;;;-2.58;89.22
72116;BME280;59991;52.140;5.428;2023-02-08T00:13:15;104004.19;;;-2.58;89.03
72116;BME280;59991;52.140;5.428;2023-02-08T00:13:49;104001.50;;;-2.58;89.22
72116;BME280;59991;52.140;5.428;2023-02-08T00:14:21;104005.81;;;-2.57;89.31
72116;BME280;59991;52.140;5.428;2023-02-08T00:14:56;104006.84;;;-2.58;89.29
72116;BME280;59991;52.140;5.428;2023-02-08T00:15:33;103995.97;;;-2.63;89.36
72116;BME280;59991;52.140;5.428;2023-02-08T00:16:08;104006.25;;;-2.60;89.37
72116;BME280;59991;52.140;5.428;2023-02-08T00:16:43;104007.06;;;-2.60;89.46
72116;BME280;59991;52.140;5.428;2023-02-08T00:17:15;103998.03;;;-2.65;89.37
72116;BME280;59991;52.140;5.428;2023-02-08T00:17:49;104003.59;;;-2.67;89.34
72116;BME280;59991;52.140;5.428;2023-02-08T00:18:26;104001.94;;;-2.68;89.35
72116;BME280;59991;52.140;5.428;2023-02-08T00:18:58;104004.84;;;-2.69;89.42
72116;BME280;59991;52.140;5.428;2023-02-08T00:19:32;104004.84;;;-2.69;89.50
72116;BME280;59991;52.140;5.428;2023-02-08T00:20:11;104007.72;;;-2.71;89.35
72116;BME280;59991;52.140;5.428;2023-02-08T00:20:49;104017.97;;;-2.68;89.59
72116;BME280;59991;52.140;5.428;2023-02-08T00:21:22;104003.41;;;-2.72;89.33
72116;BME280;59991;52.140;5.428;2023-02-08T00:21:54;104018.78;;;-2.67;89.35
72116;BME280;59991;52.140;5.428;2023-02-08T00:22:30;103999.94;;;-2.72;89.51
72116;BME280;59991;52.140;5.428;2023-02-08T00:23:01;104010.19;;;-2.69;89.24
72116;BME280;59991;52.140;5.428;2023-02-08T00:23:33;104004.03;;;-2.70;89.45
72116;BME280;59991;52.140;5.428;2023-02-08T00:24:08;104006.91;;;-2.71;89.17
72116;BME280;59991;52.140;5.428;2023-02-08T00:24:48;104003.22;;;-2.70;89.50
72116;BME280;59991;52.140;5.428;2023-02-08T00:25:22;104005.88;;;-2.70;89.16
72116;BME280;59991;52.140;5.428;2023-02-08T00:25:58;104010.19;;;-2.69;89.01
72116;BME280;59991;52.140;5.428;2023-02-08T00:26:39;104001.56;;;-2.71;89.16
72116;BME280;59991;52.140;5.428;2023-02-08T00:27:16;104000.97;;;-2.73;89.21
72116;BME280;59991;52.140;5.428;2023-02-08T00:27:54;103999.94;;;-2.72;89.45
72116;BME280;59991;52.140;5.428;2023-02-08T00:28:28;103994.19;;;-2.76;89.17
72116;BME280;59991;52.140;5.428;2023-02-08T00:29:03;104001.13;;;-2.68;89.56
72116;BME280;59991;52.140;5.428;2023-02-08T00:29:38;104007.53;;;-2.69;89.30
72116;BME280;59991;52.140;5.428;2023-02-08T00:30:48;103994.78;;;-2.74;89.13
72116;BME280;59991;52.140;5.428;2023-02-08T00:31:22;103998.06;;;-2.72;89.28
72116;BME280;59991;52.140;5.428;2023-02-08T00:32:01;103982.69;;;-2.76;89.21
72116;BME280;59991;52.140;5.428;2023-02-08T00:32:39;103991.31;;;-2.74;89.29
72116;BME280;59991;52.140;5.428;2023-02-08T00:33:13;103987.81;;;-2.75;89.24
72116;BME280;59991;52.140;5.428;2023-02-08T00:33:46;104001.94;;;-2.68;89.22
72116;BME280;59991;52.140;5.428;2023-02-08T00:34:30;103985.13;;;-2.75;88.59
72116;BME280;59991;52.140;5.428;2023-02-08T00:35:05;103983.28;;;-2.74;88.79
72116;BME280;59991;52.140;5.428;2023-02-08T00:35:41;103991.50;;;-2.69;89.10
72116;BME280;59991;52.140;5.428;2023-02-08T00:36:13;103993.56;;;-2.71;88.93
72116;BME280;59991;52.140;5.428;2023-02-08T00:36:48;103984.72;;;-2.72;89.01
72116;BME280;59991;52.140;5.428;2023-02-08T00:37:21;103977.94;;;-2.74;89.05
72116;BME280;59991;52.140;5.428;2023-02-08T00:38:02;103984.28;;;-2.69;89.04
72116;BME280;59991;52.140;5.428;2023-02-08T00:38:34;103983.47;;;-2.69;88.96
72116;BME280;59991;52.140;5.428;2023-02-08T00:39:06;103984.72;;;-2.72;88.82
72116;BME280;59991;52.140;5.428;2023-02-08T00:39:41;103977.75;;;-2.73;89.06
72116;BME280;59991;52.140;5.428;2023-02-08T00:40:13;103982.88;;;-2.71;89.20
72116;BME280;59991;52.140;5.428;2023-02-08T00:40:50;103978.16;;;-2.69;88.69
72116;BME280;59991;52.140;5.428;2023-02-08T00:41:25;103975.88;;;-2.72;88.84
72116;BME280;59991;52.140;5.428;2023-02-08T00:41:58;103975.47;;;-2.69;89.28
72116;BME280;59991;52.140;5.428;2023-02-08T00:42:34;103971.38;;;-2.72;89.09
72116;BME280;59991;52.140;5.428;2023-02-08T00:43:13;103969.94;;;-2.74;89.33
72116;BME280;59991;52.140;5.428;2023-02-08T00:43:45;103974.47;;;-2.75;89.21
72116;BME280;59991;52.140;5.428;2023-02-08T00:44:19;103970.97;;;-2.75;89.27
72116;BME280;59991;52.140;5.428;2023-02-08T00:44:52;103968.09;;;-2.74;89.71
72116;BME280;59991;52.140;5.428;2023-02-08T00:45:31;103965.00;;;-2.78;89.66
72116;BME280;59991;52.140;5.428;2023-02-08T00:46:06;103970.34;;;-2.78;89.72
72116;BME280;59991;52.140;5.428;2023-02-08T00:46:42;103963.38;;;-2.79;89.90
72116;BME280;59991;52.140;5.428;2023-02-08T00:47:16;103963.38;;;-2.79;89.57
72116;BME280;59991;52.140;5.428;2023-02-08T00:47:52;103965.00;;;-2.78;89.53
72116;BME280;59991;52.140;5.428;2023-02-08T00:48:28;103965.84;;;-2.77;89.72
72116;BME280;59991;52.140;5.428;2023-02-08T00:49:07;103966.66;;;-2.76;89.66
72116;BME280;59991;52.140;5.428;2023-02-08T00:49:39;103969.31;;;-2.76;89.80
72116;BME280;59991;52.140;5.428;2023-02-08T00:50:11;103962.97;;;-2.82;90.00
72116;BME280;59991;52.140;5.428;2023-02-08T00:50:45;103955.16;;;-2.84;89.91
72116;BME280;59991;52.140;5.428;2023-02-08T00:51:29;103965.22;;;-2.86;89.56
72116;BME280;59991;52.140;5.428;2023-02-08T00:52:01;103955.00;;;-2.89;89.82
72116;BME280;59991;52.140;5.428;2023-02-08T00:52:40;103965.69;;;-2.89;89.83
72116;BME280;59991;52.140;5.428;2023-02-08T00:53:14;103960.34;;;-2.89;89.71
72116;BME280;59991;52.140;5.428;2023-02-08T00:53:50;103967.91;;;-2.86;89.94
72116;BME280;59991;52.140;5.428;2023-02-08T00:54:21;103968.94;;;-2.87;89.73
72116;BME280;59991;52.140;5.428;2023-02-08T00:54:59;103968.94;;;-2.87;89.51
72116;BME280;59991;52.140;5.428;2023-02-08T00:55:30;103973.69;;;-2.89;89.44
72116;BME280;59991;52.140;5.428;2023-02-08T00:56:08;103977.97;;;-2.88;89.83
72116;BME280;59991;52.140;5.428;2023-02-08T00:56:43;103972.03;;;-2.90;89.75
72116;BME280;59991;52.140;5.428;2023-02-08T00:57:15;103970.81;;;-2.94;89.83
72116;BME280;59991;52.140;5.428;2023-02-08T00:57:53;103973.91;;;-2.90;89.31
72116;BME280;59991;52.140;5.428;2023-02-08T00:58:25;103968.75;;;-2.92;89.81
72116;BME280;59991;52.140;5.428;2023-02-08T00:59:00;103975.94;;;-2.92;89.63
72116;BME280;59991;52.140;5.428;2023-02-08T00:59:40;103976.78;;;-2.92;89.45
72116;BME280;59991;52.140;5.428;2023-02-08T01:00:14;103965.47;;;-2.94;89.55
72116;BME280;59991;52.140;5.428;2023-02-08T01:00:52;103973.91;;;-2.90;89.13
72116;BME280;59991;52.140;5.428;2023-02-08T01:01:24;103967.13;;;-2.93;89.58
72116;BME280;59991;52.140;5.428;2023-02-08T01:01:57;103971.22;;;-2.90;89.08
72116;BME280;59991;52.140;5.428;2023-02-08T01:02:32;103970.78;;;-2.87;89.48
72116;BME280;59991;52.140;5.428;2023-02-08T01:03:10;103966.28;;;-2.93;89.51
72116;BME280;59991;52.140;5.428;2023-02-08T01:03:48;103970.41;;;-2.91;89.14
72116;BME280;59991;52.140;5.428;2023-02-08T01:04:20;103972.63;;;-2.88;89.31
72116;BME280;59991;52.140;5.428;2023-02-08T01:04:53;103973.06;;;-2.91;89.42
72116;BME280;59991;52.140;5.428;2023-02-08T01:05:25;103973.69;;;-2.89;89.16
72116;BME280;59991;52.140;5.428;2023-02-08T01:06:05;103982.28;;;-2.87;89.33
72116;BME280;59991;52.140;5.428;2023-02-08T01:06:37;103972.41;;;-2.86;89.46
72116;BME280;59991;52.140;5.428;2023-02-08T01:07:14;103973.69;;;-2.89;89.49
72116;BME280;59991;52.140;5.428;2023-02-08T01:07:45;103974.91;;;-2.91;89.42
72116;BME280;59991;52.140;5.428;2023-02-08T01:08:20;103973.06;;;-2.91;89.07
72116;BME280;59991;52.140;5.428;2023-02-08T01:08:53;103976.34;;;-2.89;89.50
72116;BME280;59991;52.140;5.428;2023-02-08T01:09:27;103973.06;;;-2.91;89.53
72116;BME280;59991;52.140;5.428;2023-02-08T01:09:59;103967.72;;;-2.91;89.37
72116;BME280;59991;52.140;5.428;2023-02-08T01:10:31;103977.16;;;-2.88;89.72
72116;BME280;59991;52.140;5.428;2023-02-08T01:11:09;103978.78;;;-2.87;89.71
72116;BME280;59991;52.140;5.428;2023-02-08T01:11:42;103970.41;;;-2.91;89.58
72116;BME280;59991;52.140;5.428;2023-02-08T01:12:15;103985.97;;;-2.88;89.74
72116;BME280;59991;52.140;5.428;2023-02-08T01:12:47;103971.84;;;-2.95;89.91
72116;BME280;59991;52.140;5.428;2023-02-08T01:13:19;103973.50;;;-2.94;89.71
72116;BME280;59991;52.140;5.428;2023-02-08T01:13:52;103975.13;;;-2.93;89.49
72116;BME280;59991;52.140;5.428;2023-02-08T01:14:27;103973.91;;;-2.97;89.42
72116;BME280;59991;52.140;5.428;2023-02-08T01:15:06;103977.38;;;-2.96;89.51
72116;BME280;59991;52.140;5.428;2023-02-08T01:15:41;103980.06;;;-2.96;89.54
72116;BME280;59991;52.140;5.428;2023-02-08T01:16:17;103987.66;;;-2.93;89.58
72116;BME280;59991;52.140;5.428;2023-02-08T01:16:51;103979.66;;;-3.00;89.65
72116;BME280;59991;52.140;5.428;2023-02-08T01:17:23;103973.50;;;-3.00;89.73
72116;BME280;59991;52.140;5.428;2023-02-08T01:17:56;103985.41;;;-2.96;89.66
72116;BME280;59991;52.140;5.428;2023-02-08T01:18:28;103975.34;;;-3.01;89.66
72116;BME280;59991;52.140;5.428;2023-02-08T01:19:02;103975.34;;;-3.01;89.48
72116;BME280;59991;52.140;5.428;2023-02-08T01:19:34;103979.25;;;-2.97;89.64
72116;BME280;59991;52.140;5.428;2023-02-08T01:20:06;103977.59;;;-2.98;89.90
72116;BME280;59991;52.140;5.428;2023-02-08T01:20:39;103983.97;;;-2.99;89.50
72116;BME280;59991;52.140;5.428;2023-02-08T01:21:13;103981.91;;;-2.97;89.56
72116;BME280;59991;52.140;5.428;2023-02-08T01:21:48;103981.91;;;-2.97;89.91
72116;BME280;59991;52.140;5.428;2023-02-08T01:22:22;103985.59;;;-2.98;89.36
72116;BME280;59991;52.140;5.428;2023-02-08T01:22:56;103981.50;;;-3.00;89.54
72116;BME280;59991;52.140;5.428;2023-02-08T01:23:33;103981.28;;;-2.99;89.67
72116;BME280;59991;52.140;5.428;2023-02-08T01:24:06;103985.59;;;-2.98;90.07
72116;BME280;59991;52.140;5.428;2023-02-08T01:24:39;103988.91;;;-3.02;89.94
72116;BME280;59991;52.140;5.428;2023-02-08T01:25:14;104001.22;;;-2.95;89.69
72116;BME280;59991;52.140;5.428;2023-02-08T01:25:46;103994.66;;;-2.99;89.80
72116;BME280;59991;52.140;5.428;2023-02-08T01:26:21;103993.63;;;-3.04;89.68
72116;BME280;59991;52.140;5.428;2023-02-08T01:26:55;103997.13;;;-3.04;89.60
72116;BME280;59991;52.140;5.428;2023-02-08T01:27:29;104002.44;;;-3.04;89.84
72116;BME280;59991;52.140;5.428;2023-02-08T01:28:04;104001.41;;;-3.03;89.75
72116;BME280;59991;52.140;5.428;2023-02-08T01:28:36;103987.28;;;-3.10;89.59
72116;BME280;59991;52.140;5.428;2023-02-08T01:29:11;103997.31;;;-3.05;89.75
72116;BME280;59991;52.140;5.428;2023-02-08T01:29:45;103997.75;;;-3.08;89.24
72116;BME280;59991;52.140;5.428;2023-02-08T01:30:17;103995.91;;;-3.08;89.60
72116;BME280;59991;52.140;5.428;2023-02-08T01:30:51;103996.94;;;-3.09;89.96
72116;BME280;59991;52.140;5.428;2023-02-08T01:31:34;103990.38;;;-3.13;89.61
72116;BME280;59991;52.140;5.428;2023-02-08T01:32:30;103993.66;;;-3.11;89.72
72116;BME280;59991;52.140;5.428;2023-02-08T01:33:02;104001.25;;;-3.08;89.78
72116;BME280;59991;52.140;5.428;2023-02-08T01:33:34;103998.56;;;-3.08;89.77
72116;BME280;59991;52.140;5.428;2023-02-08T01:34:14;103990.16;;;-3.11;89.85
72116;BME280;59991;52.140;5.428;2023-02-08T01:34:51;103993.44;;;-3.09;89.75
72116;BME280;59991;52.140;5.428;2023-02-08T01:35:23;103999.78;;;-3.04;89.43
72116;BME280;59991;52.140;5.428;2023-02-08T01:36:12;103997.13;;;-3.04;89.51
72116;BME280;59991;52.140;5.428;2023-02-08T01:36:45;103995.47;;;-3.05;89.60
72116;BME280;59991;52.140;5.428;2023-02-08T01:37:16;103993.81;;;-3.06;89.45
72116;BME280;59991;52.140;5.428;2023-02-08T01:37:48;103984.63;;;-3.10;89.49
72116;BME280;59991;52.140;5.428;2023-02-08T01:38:22;103987.91;;;-3.08;89.44
72116;BME280;59991;52.140;5.428;2023-02-08T01:38:54;103990.75;;;-3.03;89.51
72116;BME280;59991;52.140;5.428;2023-02-08T01:39:28;103995.47;;;-3.05;89.31
72116;BME280;59991;52.140;5.428;2023-02-08T01:40:00;103976.41;;;-3.08;89.32
72116;BME280;59991;52.140;5.428;2023-02-08T01:40:32;103987.47;;;-3.05;89.12
72116;BME280;59991;52.140;5.428;2023-02-08T01:41:05;103974.56;;;-3.08;89.28
72116;BME280;59991;52.140;5.428;2023-02-08T01:41:44;103986.22;;;-3.02;89.07
72116;BME280;59991;52.140;5.428;2023-02-08T01:42:22;103976.16;;;-3.07;89.34
72116;BME280;59991;52.140;5.428;2023-02-08T01:42:54;103970.81;;;-3.07;89.49
72116;BME280;59991;52.140;5.428;2023-02-08T01:45:38;103981.28;;;-2.99;89.17
72116;BME280;59991;52.140;5.428;2023-02-08T01:46:09;103991.34;;;-3.01;89.02
72116;BME280;59991;52.140;5.428;2023-02-08T01:47:00;103979.84;;;-3.01;89.30
72116;BME280;59991;52.140;5.428;2023-02-08T01:47:32;103979.03;;;-3.02;89.46
72116;BME280;59991;52.140;5.428;2023-02-08T01:48:11;103973.09;;;-3.04;89.55
72116;BME280;59991;52.140;5.428;2023-02-08T01:48:44;103973.69;;;-3.02;89.41
72116;BME280;59991;52.140;5.428;2023-02-08T01:49:28;103982.72;;;-3.03;89.55
72116;BME280;59991;52.140;5.428;2023-02-08T01:50:02;103973.69;;;-3.02;89.33
72116;BME280;59991;52.140;5.428;2023-02-08T01:50:41;103973.69;;;-3.02;89.25
72116;BME280;59991;52.140;5.428;2023-02-08T01:51:20;103978.22;;;-3.02;89.18
72116;BME280;59991;52.140;5.428;2023-02-08T01:52:05;103968.78;;;-3.05;89.42
72116;BME280;59991;52.140;5.428;2023-02-08T01:52:41;103969.22;;;-3.08;89.72
72116;BME280;59991;52.140;5.428;2023-02-08T01:53:14;103961.63;;;-3.11;89.73
72116;BME280;59991;52.140;5.428;2023-02-08T01:53:52;103964.66;;;-3.07;89.40
72116;BME280;59991;52.140;5.428;2023-02-08T01:54:28;103962.00;;;-3.07;89.66
72116;BME280;59991;52.140;5.428;2023-02-08T01:55:05;103958.53;;;-3.08;89.73
72116;BME280;59991;52.140;5.428;2023-02-08T01:55:47;103956.06;;;-3.09;89.23
72116;BME280;59991;52.140;5.428;2023-02-08T01:56:30;103959.78;;;-3.10;89.87
72116;BME280;59991;52.140;5.428;2023-02-08T01:57:08;103965.94;;;-3.10;89.78
72116;BME280;59991;52.140;5.428;2023-02-08T01:57:42;103958.34;;;-3.13;89.75
72116;BME280;59991;52.140;5.428;2023-02-08T01:58:15;103967.34;;;-3.07;89.73
72116;BME280;59991;52.140;5.428;2023-02-08T01:58:52;103959.38;;;-3.14;89.56
72116;BME280;59991;52.140;5.428;2023-02-08T01:59:30;103967.97;;;-3.12;89.92
72116;BME280;59991;52.140;5.428;2023-02-08T02:00:14;103964.28;;;-3.11;89.66
72116;BME280;59991;52.140;5.428;2023-02-08T02:00:47;103976.41;;;-3.08;89.69
72116;BME280;59991;52.140;5.428;2023-02-08T02:01:21;103976.59;;;-3.10;90.10
72116;BME280;59991;52.140;5.428;2023-02-08T02:01:55;103970.66;;;-3.12;89.96
72116;BME280;59991;52.140;5.428;2023-02-08T02:02:30;103972.31;;;-3.11;89.87
72116;BME280;59991;52.140;5.428;2023-02-08T02:03:03;103962.03;;;-3.14;89.99
72116;BME280;59991;52.140;5.428;2023-02-08T02:03:35;103969.44;;;-3.16;90.17
72116;BME280;59991;52.140;5.428;2023-02-08T02:04:07;103973.94;;;-3.10;90.45
72116;BME280;59991;52.140;5.428;2023-02-08T02:04:39;103969.44;;;-3.16;90.30
72116;BME280;59991;52.140;5.428;2023-02-08T02:05:15;103975.38;;;-3.14;90.61
72116;BME280;59991;52.140;5.428;2023-02-08T02:05:56;103978.03;;;-3.14;90.21
72116;BME280;59991;52.140;5.428;2023-02-08T02:06:32;103972.91;;;-3.16;90.42
72116;BME280;59991;52.140;5.428;2023-02-08T02:07:05;103974.16;;;-3.18;90.32
72116;BME280;59991;52.140;5.428;2023-02-08T02:07:37;103976.63;;;-3.17;90.15
72116;BME280;59991;52.140;5.428;2023-02-08T02:08:10;103983.78;;;-3.17;90.19
72116;BME280;59991;52.140;5.428;2023-02-08T02:08:51;103974.16;;;-3.25;90.18
72116;BME280;59991;52.140;5.428;2023-02-08T02:09:28;103968.81;;;-3.25;89.75
72116;BME280;59991;52.140;5.428;2023-02-08T02:10:08;103979.06;;;-3.22;90.04
72116;BME280;59991;52.140;5.428;2023-02-08T02:10:42;103981.34;;;-3.25;90.35
72116;BME280;59991;52.140;5.428;2023-02-08T02:11:15;103971.28;;;-3.23;90.15
72116;BME280;59991;52.140;5.428;2023-02-08T02:11:48;103967.41;;;-3.27;90.11
72116;BME280;59991;52.140;5.428;2023-02-08T02:12:24;103970.25;;;-3.22;90.01
72116;BME280;59991;52.140;5.428;2023-02-08T02:13:05;103979.91;;;-3.21;90.14
72116;BME280;59991;52.140;5.428;2023-02-08T02:13:37;103965.75;;;-3.28;90.07
72116;BME280;59991;52.140;5.428;2023-02-08T02:14:12;103972.31;;;-3.24;89.78
72116;BME280;59991;52.140;5.428;2023-02-08T02:14:44;103971.88;;;-3.21;90.11
72116;BME280;59991;52.140;5.428;2023-02-08T02:15:16;103973.94;;;-3.23;89.54
72116;BME280;59991;52.140;5.428;2023-02-08T02:15:48;103979.91;;;-3.21;90.00
72116;BME280;59991;52.140;5.428;2023-02-08T02:16:22;103973.13;;;-3.24;89.83
72116;BME280;59991;52.140;5.428;2023-02-08T02:16:54;103973.13;;;-3.24;90.16
72116;BME280;59991;52.140;5.428;2023-02-08T02:17:25;103963.28;;;-3.30;89.73
72116;BME280;59991;52.140;5.428;2023-02-08T02:18:00;103964.13;;;-3.29;89.89
72116;BME280;59991;52.140;5.428;2023-02-08T02:18:33;103959.81;;;-3.30;90.67
72116;BME280;59991;52.140;5.428;2023-02-08T02:19:14;103962.66;;;-3.25;90.15
72116;BME280;59991;52.140;5.428;2023-02-08T02:20:55;103966.97;;;-3.24;90.33
72116;BME280;59991;52.140;5.428;2023-02-08T02:27:00;103968.00;;;-3.25;90.07
72116;BME280;59991;52.140;5.428;2023-02-08T02:27:57;103957.75;;;-3.28;90.10
72116;BME280;59991;52.140;5.428;2023-02-08T02:32:54;103961.66;;;-3.31;90.28
72116;BME280;59991;52.140;5.428;2023-02-08T02:34:48;103956.72;;;-3.34;90.11
72116;BME280;59991;52.140;5.428;2023-02-08T02:35:31;103956.94;;;-3.35;90.21
72116;BME280;59991;52.140;5.428;2023-02-08T02:36:19;103954.25;;;-3.35;90.08
72116;BME280;59991;52.140;5.428;2023-02-08T02:39:14;103954.66;;;-3.38;90.28
72116;BME280;59991;52.140;5.428;2023-02-08T02:40:39;103947.50;;;-3.38;90.32
72116;BME280;59991;52.140;5.428;2023-02-08T02:41:26;103952.00;;;-3.38;90.28
72116;BME280;59991;52.140;5.428;2023-02-08T02:43:53;103957.53;;;-3.40;90.23
72116;BME280;59991;52.140;5.428;2023-02-08T02:44:56;103954.06;;;-3.40;90.36
72116;BME280;59991;52.140;5.428;2023-02-08T02:46:46;103951.38;;;-3.40;90.20
72116;BME280;59991;52.140;5.428;2023-02-08T02:47:33;103946.25;;;-3.42;90.39
72116;BME280;59991;52.140;5.428;2023-02-08T02:48:11;103949.75;;;-3.41;90.34
72116;BME280;59991;52.140;5.428;2023-02-08T02:49:10;103948.72;;;-3.40;90.40
72116;BME280;59991;52.140;5.428;2023-02-08T02:49:49;103953.44;;;-3.42;90.17
72116;BME280;59991;52.140;5.428;2023-02-08T02:50:48;103955.91;;;-3.41;90.33
72116;BME280;59991;52.140;5.428;2023-02-08T02:51:48;103953.44;;;-3.42;90.34
72116;BME280;59991;52.140;5.428;2023-02-08T02:52:27;103957.34;;;-3.45;90.06
72116;BME280;59991;52.140;5.428;2023-02-08T02:54:53;103957.97;;;-3.50;90.27
72116;BME280;59991;52.140;5.428;2023-02-08T02:55:30;103951.22;;;-3.52;90.15
72116;BME280;59991;52.140;5.428;2023-02-08T02:56:09;103954.69;;;-3.52;90.10
72116;BME280;59991;52.140;5.428;2023-02-08T02:56:44;103959.22;;;-3.52;90.00
72116;BME280;59991;52.140;5.428;2023-02-08T02:57:31;103963.72;;;-3.53;89.83
72116;BME280;59991;52.140;5.428;2023-02-08T02:58:04;103956.13;;;-3.56;90.37
72116;BME280;59991;52.140;5.428;2023-02-08T02:58:38;103951.63;;;-3.55;90.32
72116;BME280;59991;52.140;5.428;2023-02-08T02:59:12;103950.19;;;-3.58;90.06
72116;BME280;59991;52.140;5.428;2023-02-08T02:59:45;103948.72;;;-3.60;90.23
72116;BME280;59991;52.140;5.428;2023-02-08T03:00:23;103951.19;;;-3.59;90.19
72116;BME280;59991;52.140;5.428;2023-02-08T03:00:57;103946.88;;;-3.60;90.36
72116;BME280;59991;52.140;5.428;2023-02-08T03:01:29;103956.75;;;-3.60;90.34
72116;BME280;59991;52.140;5.428;2023-02-08T03:02:01;103941.34;;;-3.65;90.01
72116;BME280;59991;52.140;5.428;2023-02-08T03:02:34;103953.88;;;-3.59;90.35
72116;BME280;59991;52.140;5.428;2023-02-08T03:03:16;103944.63;;;-3.63;90.68
72116;BME280;59991;52.140;5.428;2023-02-08T03:03:52;103953.44;;;-3.62;90.60
72116;BME280;59991;52.140;5.428;2023-02-08T03:05:08;103956.34;;;-3.57;90.59
72116;BME280;59991;52.140;5.428;2023-02-08T03:05:41;103955.72;;;-3.59;90.49
72116;BME280;59991;52.140;5.428;2023-02-08T03:06:23;103951.00;;;-3.57;90.54
72116;BME280;59991;52.140;5.428;2023-02-08T03:11:17;103946.28;;;-3.55;90.25
72116;BME280;59991;52.140;5.428;2023-02-08T03:14:02;103945.47;;;-3.56;90.07
72116;BME280;59991;52.140;5.428;2023-02-08T03:14:44;103944.63;;;-3.56;90.10
72116;BME280;59991;52.140;5.428;2023-02-08T03:15:43;103944.63;;;-3.56;90.40
72116;BME280;59991;52.140;5.428;2023-02-08T03:17:45;103950.19;;;-3.58;90.41
72116;BME280;59991;52.140;5.428;2023-02-08T03:18:35;103939.72;;;-3.59;90.44
72116;BME280;59991;52.140;5.428;2023-02-08T03:20:00;103935.19;;;-3.59;90.26
72116;BME280;59991;52.140;5.428;2023-02-08T03:20:39;103935.19;;;-3.59;90.43
72116;BME280;59991;52.140;5.428;2023-02-08T03:22:19;103934.38;;;-3.59;90.37
72116;BME280;59991;52.140;5.428;2023-02-08T03:23:23;103933.56;;;-3.60;90.55
72116;BME280;59991;52.140;5.428;2023-02-08T03:24:37;103934.38;;;-3.59;90.38
72116;BME280;59991;52.140;5.428;2023-02-08T03:25:17;103932.72;;;-3.60;90.29
72116;BME280;59991;52.140;5.428;2023-02-08T03:26:30;103931.91;;;-3.61;90.34
72116;BME280;59991;52.140;5.428;2023-02-08T03:27:11;103929.25;;;-3.61;90.31
72116;BME280;59991;52.140;5.428;2023-02-08T03:29:03;103927.59;;;-3.62;90.29
72116;BME280;59991;52.140;5.428;2023-02-08T03:29:46;103930.25;;;-3.62;90.59
72116;BME280;59991;52.140;5.428;2023-02-08T03:30:46;103932.94;;;-3.62;90.71
72116;BME280;59991;52.140;5.428;2023-02-08T03:31:26;103929.44;;;-3.62;90.45
72116;BME280;59991;52.140;5.428;2023-02-08T03:32:11;103926.97;;;-3.64;90.35
72116;BME280;59991;52.140;5.428;2023-02-08T03:32:53;103929.06;;;-3.66;90.63
72116;BME280;59991;52.140;5.428;2023-02-08T03:33:33;103929.84;;;-3.65;90.50
72116;BME280;59991;52.140;5.428;2023-02-08T03:34:13;103933.78;;;-3.68;90.80
72116;BME280;59991;52.140;5.428;2023-02-08T03:35:35;103938.50;;;-3.70;90.61
72116;BME280;59991;52.140;5.428;2023-02-08T03:36:23;103937.88;;;-3.72;90.61
72116;BME280;59991;52.140;5.428;2023-02-08T03:37:04;103930.69;;;-3.71;90.61
72116;BME280;59991;52.140;5.428;2023-02-08T03:37:59;103932.75;;;-3.73;90.39
72116;BME280;59991;52.140;5.428;2023-02-08T03:38:39;103930.28;;;-3.75;90.48
72116;BME280;59991;52.140;5.428;2023-02-08T03:39:14;103925.34;;;-3.78;90.58
72116;BME280;59991;52.140;5.428;2023-02-08T03:39:50;103930.69;;;-3.78;90.48
72116;BME280;59991;52.140;5.428;2023-02-08T03:40:44;103927.00;;;-3.77;90.54
72116;BME280;59991;52.140;5.428;2023-02-08T03:41:25;103935.19;;;-3.78;90.56
72116;BME280;59991;52.140;5.428;2023-02-08T03:42:02;103934.38;;;-3.79;90.72
72116;BME280;59991;52.140;5.428;2023-02-08T03:42:35;103930.06;;;-3.80;90.71
72116;BME280;59991;52.140;5.428;2023-02-08T03:43:13;103935.41;;;-3.80;90.75
72116;BME280;59991;52.140;5.428;2023-02-08T03:44:10;103938.88;;;-3.79;90.50
72116;BME280;59991;52.140;5.428;2023-02-08T03:44:56;103940.72;;;-3.80;90.66
72116;BME280;59991;52.140;5.428;2023-02-08T03:45:32;103938.06;;;-3.80;90.64
72116;BME280;59991;52.140;5.428;2023-02-08T03:46:10;103941.56;;;-3.79;90.63
72116;BME280;59991;52.140;5.428;2023-02-08T03:46:51;103940.72;;;-3.80;90.46
72116;BME280;59991;52.140;5.428;2023-02-08T03:47:28;103942.78;;;-3.82;90.70
72116;BME280;59991;52.140;5.428;2023-02-08T03:48:04;103942.78;;;-3.82;90.62
72116;BME280;59991;52.140;5.428;2023-02-08T03:48:43;103939.72;;;-3.86;90.63